Aeronaves

Nuestra Flota

En el Centro de Instrucción de Aeronáutica Civil del Aeroclub de Mar del Plata contamos con 2 aviones Cessna 150 que es un avión biplaza  equipado con tren de aterrizaje fijo en triciclo y ala alta, diseñado originalmente para labores de entrenamiento, turismo y uso personal. 

Nuestros aviones cessna 150 son:

Cessna 150 – LV−LLD,  Biplaza tren triciclo

Cessna 150 – LV−BPG,  Biplaza tren triciclo. 

Cessna 150 – LV−CLH,  Biplaza tren triciclo. 

Cessna 172 LV – GNZ Cuatriplaza tren triciclo

Además contamos con 1 avión Piper PA 11, un avión biplaza en tándem, con ala alta, diseñado para entrenamiento y perfeccionamiento de los pilotos

Piper PA11 – LV −YJI, Biplaza tren convencional.

 

Facebook Aeroclub Mar del Plata

Informe Climatico
MAR DEL PLATA AR
Metar
SAZM 180200Z 17005KT 0450 R13/1100 FG OVC002 14/14 Q1013

02:00 UTC

Wind: 170° 5kt

Visibility: 450 m

Sky: OVC 200 ft

Temp: 14 deg C / 57.2 deg F

Dewpoint: 14 deg C / 57.2 deg F

Pressure: 1013 hPa

TAF
TAF SAZM 172300Z 1800/1824 14010KT 0200 FG OVC002 TX16/1818Z TN10/1810Z PROB30 TEMPO 1806/1812 18010KT 1000 BR OVC002 BECMG 1817/1818 18015KT 6000 BKN006 OVC015